sensor_id;sensor_type;location;lat;lon;timestamp;P1;durP1;ratioP1;P2;durP2;ratioP2
22935;SDS011;11633;42.716;23.312;2023-03-01T00:01:27;2.42;;;1.88;;
22935;SDS011;11633;42.716;23.312;2023-03-01T00:03:53;2.55;;;1.70;;
22935;SDS011;11633;42.716;23.312;2023-03-01T00:06:18;3.00;;;1.92;;
22935;SDS011;11633;42.716;23.312;2023-03-01T00:08:44;4.18;;;2.20;;
22935;SDS011;11633;42.716;23.312;2023-03-01T00:11:13;3.28;;;2.13;;
22935;SDS011;11633;42.716;23.312;2023-03-01T00:13:39;3.47;;;2.15;;
22935;SDS011;11633;42.716;23.312;2023-03-01T00:16:07;2.55;;;2.13;;
22935;SDS011;11633;42.716;23.312;2023-03-01T00:18:33;3.28;;;1.65;;
22935;SDS011;11633;42.716;23.312;2023-03-01T00:20:59;1.60;;;1.40;;
22935;SDS011;11633;42.716;23.312;2023-03-01T00:23:24;1.42;;;1.00;;
22935;SDS011;11633;42.716;23.312;2023-03-01T00:25:50;1.42;;;0.90;;
22935;SDS011;11633;42.716;23.312;2023-03-01T00:28:15;2.15;;;1.27;;
22935;SDS011;11633;42.716;23.312;2023-03-01T00:30:40;2.42;;;1.10;;
22935;SDS011;11633;42.716;23.312;2023-03-01T00:33:06;1.50;;;1.20;;
22935;SDS011;11633;42.716;23.312;2023-03-01T00:35:34;1.98;;;1.27;;
22935;SDS011;11633;42.716;23.312;2023-03-01T00:37:59;1.67;;;1.30;;
22935;SDS011;11633;42.716;23.312;2023-03-01T00:40:25;1.83;;;1.35;;
22935;SDS011;11633;42.716;23.312;2023-03-01T00:42:50;1.40;;;1.17;;
22935;SDS011;11633;42.716;23.312;2023-03-01T00:45:16;1.50;;;1.00;;
22935;SDS011;11633;42.716;23.312;2023-03-01T00:47:41;1.30;;;0.90;;
22935;SDS011;11633;42.716;23.312;2023-03-01T00:50:06;2.10;;;1.30;;
22935;SDS011;11633;42.716;23.312;2023-03-01T00:52:32;2.03;;;1.20;;
22935;SDS011;11633;42.716;23.312;2023-03-01T00:54:57;1.70;;;1.20;;
22935;SDS011;11633;42.716;23.312;2023-03-01T00:57:23;1.27;;;1.10;;
22935;SDS011;11633;42.716;23.312;2023-03-01T00:59:48;1.65;;;1.40;;
22935;SDS011;11633;42.716;23.312;2023-03-01T01:02:13;1.50;;;1.35;;
22935;SDS011;11633;42.716;23.312;2023-03-01T01:04:38;1.67;;;1.08;;
22935;SDS011;11633;42.716;23.312;2023-03-01T01:07:04;1.15;;;0.98;;
22935;SDS011;11633;42.716;23.312;2023-03-01T01:09:30;1.73;;;1.25;;
22935;SDS011;11633;42.716;23.312;2023-03-01T01:11:55;2.05;;;1.55;;
22935;SDS011;11633;42.716;23.312;2023-03-01T01:14:21;1.55;;;1.33;;
22935;SDS011;11633;42.716;23.312;2023-03-01T01:16:46;1.45;;;1.13;;
22935;SDS011;11633;42.716;23.312;2023-03-01T01:19:11;2.08;;;1.20;;
22935;SDS011;11633;42.716;23.312;2023-03-01T01:21:37;1.42;;;1.10;;
22935;SDS011;11633;42.716;23.312;2023-03-01T01:24:03;2.22;;;1.33;;
22935;SDS011;11633;42.716;23.312;2023-03-01T01:26:29;1.92;;;1.17;;
22935;SDS011;11633;42.716;23.312;2023-03-01T01:28:55;1.83;;;1.38;;
22935;SDS011;11633;42.716;23.312;2023-03-01T01:31:20;2.35;;;1.45;;
22935;SDS011;11633;42.716;23.312;2023-03-01T01:33:48;1.40;;;1.15;;
22935;SDS011;11633;42.716;23.312;2023-03-01T01:36:13;1.95;;;1.48;;
22935;SDS011;11633;42.716;23.312;2023-03-01T01:38:39;1.48;;;1.20;;
22935;SDS011;11633;42.716;23.312;2023-03-01T01:41:07;1.75;;;1.30;;
22935;SDS011;11633;42.716;23.312;2023-03-01T01:46:01;2.22;;;1.88;;
22935;SDS011;11633;42.716;23.312;2023-03-01T01:48:50;2.22;;;1.52;;
22935;SDS011;11633;42.716;23.312;2023-03-01T01:51:13;2.05;;;1.30;;
22935;SDS011;11633;42.716;23.312;2023-03-01T01:53:39;3.58;;;1.30;;
22935;SDS011;11633;42.716;23.312;2023-03-01T01:56:05;1.30;;;1.02;;
22935;SDS011;11633;42.716;23.312;2023-03-01T01:58:32;1.40;;;1.08;;
22935;SDS011;11633;42.716;23.312;2023-03-01T02:00:57;1.25;;;1.00;;
22935;SDS011;11633;42.716;23.312;2023-03-01T02:03:24;1.30;;;0.73;;
22935;SDS011;11633;42.716;23.312;2023-03-01T02:05:55;1.20;;;1.08;;
22935;SDS011;11633;42.716;23.312;2023-03-01T02:08:22;0.95;;;0.95;;
22935;SDS011;11633;42.716;23.312;2023-03-01T02:10:49;1.50;;;1.10;;
22935;SDS011;11633;42.716;23.312;2023-03-01T02:13:15;1.23;;;1.13;;
22935;SDS011;11633;42.716;23.312;2023-03-01T02:15:40;0.75;;;0.73;;
22935;SDS011;11633;42.716;23.312;2023-03-01T02:18:06;1.25;;;0.85;;
22935;SDS011;11633;42.716;23.312;2023-03-01T02:20:39;1.23;;;1.13;;
22935;SDS011;11633;42.716;23.312;2023-03-01T02:23:06;1.77;;;1.20;;
22935;SDS011;11633;42.716;23.312;2023-03-01T02:25:50;1.50;;;1.30;;
22935;SDS011;11633;42.716;23.312;2023-03-01T02:28:30;0.80;;;0.80;;
22935;SDS011;11633;42.716;23.312;2023-03-01T02:30:56;1.33;;;1.05;;
22935;SDS011;11633;42.716;23.312;2023-03-01T02:33:40;1.23;;;1.02;;
22935;SDS011;11633;42.716;23.312;2023-03-01T02:36:26;1.95;;;1.38;;
22935;SDS011;11633;42.716;23.312;2023-03-01T02:38:55;1.73;;;1.58;;
22935;SDS011;11633;42.716;23.312;2023-03-01T02:41:22;2.13;;;1.58;;
22935;SDS011;11633;42.716;23.312;2023-03-01T02:43:48;1.90;;;1.50;;
22935;SDS011;11633;42.716;23.312;2023-03-01T02:46:15;2.05;;;1.55;;
22935;SDS011;11633;42.716;23.312;2023-03-01T02:48:42;1.85;;;1.48;;
22935;SDS011;11633;42.716;23.312;2023-03-01T02:51:11;1.63;;;1.33;;
22935;SDS011;11633;42.716;23.312;2023-03-01T02:56:23;1.30;;;1.00;;
22935;SDS011;11633;42.716;23.312;2023-03-01T02:58:49;1.35;;;0.88;;
22935;SDS011;11633;42.716;23.312;2023-03-01T03:01:17;1.85;;;0.88;;
22935;SDS011;11633;42.716;23.312;2023-03-01T03:03:42;1.00;;;0.90;;
22935;SDS011;11633;42.716;23.312;2023-03-01T03:06:08;1.30;;;1.00;;
22935;SDS011;11633;42.716;23.312;2023-03-01T03:08:33;1.10;;;1.00;;
22935;SDS011;11633;42.716;23.312;2023-03-01T03:10:58;1.02;;;0.90;;
22935;SDS011;11633;42.716;23.312;2023-03-01T03:13:24;1.20;;;0.70;;
22935;SDS011;11633;42.716;23.312;2023-03-01T03:15:53;1.50;;;1.02;;
22935;SDS011;11633;42.716;23.312;2023-03-01T03:18:19;1.27;;;1.00;;
22935;SDS011;11633;42.716;23.312;2023-03-01T03:20:44;1.20;;;1.08;;
22935;SDS011;11633;42.716;23.312;2023-03-01T03:23:10;1.80;;;1.20;;
22935;SDS011;11633;42.716;23.312;2023-03-01T03:25:35;1.25;;;0.88;;
22935;SDS011;11633;42.716;23.312;2023-03-01T03:28:02;1.10;;;0.93;;
22935;SDS011;11633;42.716;23.312;2023-03-01T03:30:34;1.85;;;1.17;;
22935;SDS011;11633;42.716;23.312;2023-03-01T03:32:59;1.40;;;1.15;;
22935;SDS011;11633;42.716;23.312;2023-03-01T03:35:26;5.43;;;1.33;;
22935;SDS011;11633;42.716;23.312;2023-03-01T03:37:53;1.30;;;1.20;;
22935;SDS011;11633;42.716;23.312;2023-03-01T03:40:31;1.65;;;1.45;;
22935;SDS011;11633;42.716;23.312;2023-03-01T03:42:56;1.25;;;1.00;;
22935;SDS011;11633;42.716;23.312;2023-03-01T03:45:21;1.67;;;1.23;;
22935;SDS011;11633;42.716;23.312;2023-03-01T03:47:47;0.90;;;0.80;;
22935;SDS011;11633;42.716;23.312;2023-03-01T03:50:13;1.20;;;1.10;;
22935;SDS011;11633;42.716;23.312;2023-03-01T03:52:38;1.40;;;1.30;;
22935;SDS011;11633;42.716;23.312;2023-03-01T03:55:04;1.60;;;1.10;;
22935;SDS011;11633;42.716;23.312;2023-03-01T03:57:36;1.65;;;1.25;;
22935;SDS011;11633;42.716;23.312;2023-03-01T04:00:01;1.00;;;0.82;;
22935;SDS011;11633;42.716;23.312;2023-03-01T04:02:29;1.35;;;0.98;;
22935;SDS011;11633;42.716;23.312;2023-03-01T04:04:54;2.15;;;0.90;;
22935;SDS011;11633;42.716;23.312;2023-03-01T04:07:20;1.35;;;1.15;;
22935;SDS011;11633;42.716;23.312;2023-03-01T04:09:45;1.67;;;1.23;;
22935;SDS011;11633;42.716;23.312;2023-03-01T04:12:10;1.52;;;0.93;;
22935;SDS011;11633;42.716;23.312;2023-03-01T04:14:36;1.38;;;1.00;;
22935;SDS011;11633;42.716;23.312;2023-03-01T04:17:01;1.20;;;0.90;;
22935;SDS011;11633;42.716;23.312;2023-03-01T04:19:29;2.65;;;1.15;;
22935;SDS011;11633;42.716;23.312;2023-03-01T04:22:03;1.30;;;0.90;;
22935;SDS011;11633;42.716;23.312;2023-03-01T04:24:34;1.20;;;1.10;;
22935;SDS011;11633;42.716;23.312;2023-03-01T04:26:59;1.58;;;1.10;;
22935;SDS011;11633;42.716;23.312;2023-03-01T04:29:24;1.70;;;1.33;;
22935;SDS011;11633;42.716;23.312;2023-03-01T04:31:50;1.63;;;1.30;;
22935;SDS011;11633;42.716;23.312;2023-03-01T04:34:15;2.47;;;0.95;;
22935;SDS011;11633;42.716;23.312;2023-03-01T04:36:40;2.08;;;1.25;;
22935;SDS011;11633;42.716;23.312;2023-03-01T04:39:05;2.33;;;1.50;;
22935;SDS011;11633;42.716;23.312;2023-03-01T04:41:37;1.90;;;1.33;;
22935;SDS011;11633;42.716;23.312;2023-03-01T04:44:03;2.65;;;1.60;;
22935;SDS011;11633;42.716;23.312;2023-03-01T04:46:29;2.42;;;1.92;;
22935;SDS011;11633;42.716;23.312;2023-03-01T04:48:54;2.58;;;1.73;;
22935;SDS011;11633;42.716;23.312;2023-03-01T04:51:19;3.47;;;2.15;;
22935;SDS011;11633;42.716;23.312;2023-03-01T04:53:45;1.63;;;1.35;;
22935;SDS011;11633;42.716;23.312;2023-03-01T04:56:10;3.40;;;1.75;;
22935;SDS011;11633;42.716;23.312;2023-03-01T04:58:35;2.78;;;1.98;;
22935;SDS011;11633;42.716;23.312;2023-03-01T05:01:01;2.33;;;2.10;;
22935;SDS011;11633;42.716;23.312;2023-03-01T05:03:26;3.22;;;2.03;;
22935;SDS011;11633;42.716;23.312;2023-03-01T05:05:52;3.35;;;2.30;;
22935;SDS011;11633;42.716;23.312;2023-03-01T05:08:17;2.47;;;1.40;;
22935;SDS011;11633;42.716;23.312;2023-03-01T05:10:44;1.30;;;1.20;;
22935;SDS011;11633;42.716;23.312;2023-03-01T05:13:11;0.63;;;0.63;;
22935;SDS011;11633;42.716;23.312;2023-03-01T05:15:38;1.15;;;0.73;;
22935;SDS011;11633;42.716;23.312;2023-03-01T05:18:04;1.38;;;0.98;;
22935;SDS011;11633;42.716;23.312;2023-03-01T05:20:32;0.98;;;0.82;;
22935;SDS011;11633;42.716;23.312;2023-03-01T05:22:58;2.08;;;1.10;;
22935;SDS011;11633;42.716;23.312;2023-03-01T05:25:25;1.90;;;1.20;;
22935;SDS011;11633;42.716;23.312;2023-03-01T05:27:50;2.50;;;0.82;;
22935;SDS011;11633;42.716;23.312;2023-03-01T05:30:16;4.93;;;1.02;;
22935;SDS011;11633;42.716;23.312;2023-03-01T05:32:51;2.58;;;1.92;;
22935;SDS011;11633;42.716;23.312;2023-03-01T05:35:21;3.72;;;2.40;;
22935;SDS011;11633;42.716;23.312;2023-03-01T05:37:47;3.83;;;2.45;;
22935;SDS011;11633;42.716;23.312;2023-03-01T05:40:13;2.60;;;2.00;;
22935;SDS011;11633;42.716;23.312;2023-03-01T05:42:45;3.95;;;2.38;;
22935;SDS011;11633;42.716;23.312;2023-03-01T05:45:11;3.20;;;2.25;;
22935;SDS011;11633;42.716;23.312;2023-03-01T05:47:37;4.75;;;2.13;;
22935;SDS011;11633;42.716;23.312;2023-03-01T05:50:03;5.30;;;2.53;;
22935;SDS011;11633;42.716;23.312;2023-03-01T05:52:28;3.78;;;2.38;;
22935;SDS011;11633;42.716;23.312;2023-03-01T05:54:54;3.83;;;2.22;;
22935;SDS011;11633;42.716;23.312;2023-03-01T05:57:20;4.38;;;2.67;;
22935;SDS011;11633;42.716;23.312;2023-03-01T05:59:45;3.08;;;2.05;;
22935;SDS011;11633;42.716;23.312;2023-03-01T06:02:10;5.85;;;1.95;;
22935;SDS011;11633;42.716;23.312;2023-03-01T06:04:36;2.92;;;2.40;;
22935;SDS011;11633;42.716;23.312;2023-03-01T06:07:01;4.18;;;2.30;;
22935;SDS011;11633;42.716;23.312;2023-03-01T06:09:26;7.18;;;2.50;;
22935;SDS011;11633;42.716;23.312;2023-03-01T06:11:51;2.03;;;1.70;;
22935;SDS011;11633;42.716;23.312;2023-03-01T06:14:16;4.32;;;2.55;;
22935;SDS011;11633;42.716;23.312;2023-03-01T06:16:42;2.75;;;1.75;;
22935;SDS011;11633;42.716;23.312;2023-03-01T06:19:07;7.80;;;2.80;;
22935;SDS011;11633;42.716;23.312;2023-03-01T06:21:32;4.18;;;2.55;;
22935;SDS011;11633;42.716;23.312;2023-03-01T06:23:57;6.05;;;2.78;;
22935;SDS011;11633;42.716;23.312;2023-03-01T06:26:23;3.00;;;2.53;;
22935;SDS011;11633;42.716;23.312;2023-03-01T06:28:48;4.88;;;1.98;;
22935;SDS011;11633;42.716;23.312;2023-03-01T06:31:13;2.50;;;1.98;;
22935;SDS011;11633;42.716;23.312;2023-03-01T06:33:38;2.85;;;1.92;;
22935;SDS011;11633;42.716;23.312;2023-03-01T06:36:04;2.95;;;1.80;;
22935;SDS011;11633;42.716;23.312;2023-03-01T06:38:29;4.25;;;2.28;;
22935;SDS011;11633;42.716;23.312;2023-03-01T06:40:54;5.43;;;2.10;;
22935;SDS011;11633;42.716;23.312;2023-03-01T06:43:20;3.30;;;1.40;;
22935;SDS011;11633;42.716;23.312;2023-03-01T06:45:45;3.10;;;1.77;;
22935;SDS011;11633;42.716;23.312;2023-03-01T06:48:11;3.67;;;2.00;;
22935;SDS011;11633;42.716;23.312;2023-03-01T06:50:36;6.60;;;1.83;;
22935;SDS011;11633;42.716;23.312;2023-03-01T06:53:02;2.83;;;2.00;;
22935;SDS011;11633;42.716;23.312;2023-03-01T06:55:27;3.13;;;2.00;;
22935;SDS011;11633;42.716;23.312;2023-03-01T06:57:56;2.42;;;1.92;;
22935;SDS011;11633;42.716;23.312;2023-03-01T07:00:22;2.28;;;1.40;;
22935;SDS011;11633;42.716;23.312;2023-03-01T07:02:48;2.88;;;1.20;;
22935;SDS011;11633;42.716;23.312;2023-03-01T07:05:13;3.45;;;1.50;;
22935;SDS011;11633;42.716;23.312;2023-03-01T07:07:38;3.60;;;1.87;;
22935;SDS011;11633;42.716;23.312;2023-03-01T07:10:03;2.63;;;2.05;;
22935;SDS011;11633;42.716;23.312;2023-03-01T07:12:30;2.88;;;1.58;;
22935;SDS011;11633;42.716;23.312;2023-03-01T07:14:55;3.03;;;1.33;;
22935;SDS011;11633;42.716;23.312;2023-03-01T07:17:21;2.58;;;1.80;;
22935;SDS011;11633;42.716;23.312;2023-03-01T07:19:46;2.33;;;1.75;;
22935;SDS011;11633;42.716;23.312;2023-03-01T07:22:11;2.45;;;1.80;;
22935;SDS011;11633;42.716;23.312;2023-03-01T07:24:36;2.78;;;1.55;;
22935;SDS011;11633;42.716;23.312;2023-03-01T07:27:02;2.08;;;1.60;;
22935;SDS011;11633;42.716;23.312;2023-03-01T07:29:27;2.42;;;1.67;;
22935;SDS011;11633;42.716;23.312;2023-03-01T07:31:54;2.70;;;1.73;;
22935;SDS011;11633;42.716;23.312;2023-03-01T07:34:19;3.67;;;2.40;;
22935;SDS011;11633;42.716;23.312;2023-03-01T07:36:44;2.17;;;1.80;;
22935;SDS011;11633;42.716;23.312;2023-03-01T07:39:10;3.38;;;1.80;;
22935;SDS011;11633;42.716;23.312;2023-03-01T07:41:36;4.80;;;2.75;;
22935;SDS011;11633;42.716;23.312;2023-03-01T07:44:01;2.15;;;1.33;;
22935;SDS011;11633;42.716;23.312;2023-03-01T07:46:26;3.00;;;1.20;;
22935;SDS011;11633;42.716;23.312;2023-03-01T07:48:52;2.63;;;1.58;;
22935;SDS011;11633;42.716;23.312;2023-03-01T07:51:17;3.63;;;1.50;;
22935;SDS011;11633;42.716;23.312;2023-03-01T07:53:44;2.25;;;1.60;;
22935;SDS011;11633;42.716;23.312;2023-03-01T07:56:11;1.30;;;0.98;;
22935;SDS011;11633;42.716;23.312;2023-03-01T07:58:37;2.17;;;0.90;;
22935;SDS011;11633;42.716;23.312;2023-03-01T08:01:03;2.05;;;1.20;;
22935;SDS011;11633;42.716;23.312;2023-03-01T08:03:29;1.30;;;1.05;;
22935;SDS011;11633;42.716;23.312;2023-03-01T08:05:54;1.70;;;1.25;;
22935;SDS011;11633;42.716;23.312;2023-03-01T08:08:20;2.88;;;1.27;;
22935;SDS011;11633;42.716;23.312;2023-03-01T08:10:45;1.10;;;0.95;;
22935;SDS011;11633;42.716;23.312;2023-03-01T08:13:10;1.10;;;0.80;;
22935;SDS011;11633;42.716;23.312;2023-03-01T08:15:35;1.67;;;1.02;;
22935;SDS011;11633;42.716;23.312;2023-03-01T08:18:01;1.95;;;1.13;;
22935;SDS011;11633;42.716;23.312;2023-03-01T08:20:26;0.77;;;0.70;;
22935;SDS011;11633;42.716;23.312;2023-03-01T08:22:51;1.45;;;1.00;;
22935;SDS011;11633;42.716;23.312;2023-03-01T08:25:17;2.10;;;1.35;;
22935;SDS011;11633;42.716;23.312;2023-03-01T08:27:42;2.55;;;1.02;;
22935;SDS011;11633;42.716;23.312;2023-03-01T08:30:07;3.40;;;1.15;;
22935;SDS011;11633;42.716;23.312;2023-03-01T08:32:37;1.23;;;1.08;;
22935;SDS011;11633;42.716;23.312;2023-03-01T08:35:02;1.65;;;0.90;;
22935;SDS011;11633;42.716;23.312;2023-03-01T08:37:27;1.15;;;0.70;;
22935;SDS011;11633;42.716;23.312;2023-03-01T08:39:56;1.67;;;1.08;;
22935;SDS011;11633;42.716;23.312;2023-03-01T08:42:21;1.40;;;1.08;;
22935;SDS011;11633;42.716;23.312;2023-03-01T08:44:46;1.30;;;1.10;;
22935;SDS011;11633;42.716;23.312;2023-03-01T08:47:11;1.52;;;1.42;;
22935;SDS011;11633;42.716;23.312;2023-03-01T08:49:36;1.95;;;1.65;;
22935;SDS011;11633;42.716;23.312;2023-03-01T08:52:02;1.52;;;1.15;;
22935;SDS011;11633;42.716;23.312;2023-03-01T08:54:27;1.75;;;1.38;;
22935;SDS011;11633;42.716;23.312;2023-03-01T08:56:53;3.33;;;1.92;;
22935;SDS011;11633;42.716;23.312;2023-03-01T08:59:19;2.35;;;1.35;;
22935;SDS011;11633;42.716;23.312;2023-03-01T09:01:44;1.65;;;1.48;;
22935;SDS011;11633;42.716;23.312;2023-03-01T09:04:10;2.50;;;1.60;;
22935;SDS011;11633;42.716;23.312;2023-03-01T09:06:36;4.40;;;1.98;;
22935;SDS011;11633;42.716;23.312;2023-03-01T09:09:02;2.45;;;1.48;;
22935;SDS011;11633;42.716;23.312;2023-03-01T09:11:28;1.70;;;1.30;;
22935;SDS011;11633;42.716;23.312;2023-03-01T09:13:53;1.50;;;1.00;;
22935;SDS011;11633;42.716;23.312;2023-03-01T09:16:19;1.27;;;1.00;;
22935;SDS011;11633;42.716;23.312;2023-03-01T09:18:48;1.45;;;1.30;;
22935;SDS011;11633;42.716;23.312;2023-03-01T09:21:14;1.38;;;1.15;;
22935;SDS011;11633;42.716;23.312;2023-03-01T09:23:41;1.00;;;0.88;;
22935;SDS011;11633;42.716;23.312;2023-03-01T09:26:07;0.90;;;0.80;;
22935;SDS011;11633;42.716;23.312;2023-03-01T09:28:34;2.40;;;1.08;;
22935;SDS011;11633;42.716;23.312;2023-03-01T09:30:59;1.50;;;1.00;;
22935;SDS011;11633;42.716;23.312;2023-03-01T09:33:25;1.20;;;1.10;;
22935;SDS011;11633;42.716;23.312;2023-03-01T09:35:55;3.55;;;1.38;;
22935;SDS011;11633;42.716;23.312;2023-03-01T09:38:20;1.20;;;0.80;;
22935;SDS011;11633;42.716;23.312;2023-03-01T09:40:46;0.73;;;0.70;;
22935;SDS011;11633;42.716;23.312;2023-03-01T09:43:25;1.73;;;0.70;;
22935;SDS011;11633;42.716;23.312;2023-03-01T09:45:55;1.10;;;0.80;;
22935;SDS011;11633;42.716;23.312;2023-03-01T09:48:22;2.58;;;1.00;;
22935;SDS011;11633;42.716;23.312;2023-03-01T09:50:49;0.98;;;0.93;;
22935;SDS011;11633;42.716;23.312;2023-03-01T09:53:22;1.25;;;1.00;;
22935;SDS011;11633;42.716;23.312;2023-03-01T09:58:39;1.13;;;0.70;;
22935;SDS011;11633;42.716;23.312;2023-03-01T10:04:04;0.47;;;0.32;;
22935;SDS011;11633;42.716;23.312;2023-03-01T10:06:34;1.67;;;0.80;;
22935;SDS011;11633;42.716;23.312;2023-03-01T10:09:05;0.98;;;0.82;;
22935;SDS011;11633;42.716;23.312;2023-03-01T10:11:37;2.58;;;0.50;;
22935;SDS011;11633;42.716;23.312;2023-03-01T10:14:04;0.98;;;0.85;;
22935;SDS011;11633;42.716;23.312;2023-03-01T10:18:59;1.17;;;0.82;;
22935;SDS011;11633;42.716;23.312;2023-03-01T10:21:25;1.38;;;0.70;;
22935;SDS011;11633;42.716;23.312;2023-03-01T10:23:51;1.50;;;0.65;;
22935;SDS011;11633;42.716;23.312;2023-03-01T10:26:30;0.98;;;0.98;;
22935;SDS011;11633;42.716;23.312;2023-03-01T10:29:01;0.88;;;0.60;;
22935;SDS011;11633;42.716;23.312;2023-03-01T10:31:31;1.05;;;0.75;;
22935;SDS011;11633;42.716;23.312;2023-03-01T10:34:02;0.73;;;0.50;;
22935;SDS011;11633;42.716;23.312;2023-03-01T10:36:28;2.88;;;0.98;;
22935;SDS011;11633;42.716;23.312;2023-03-01T10:38:57;0.63;;;0.30;;
22935;SDS011;11633;42.716;23.312;2023-03-01T10:41:24;1.05;;;0.40;;
22935;SDS011;11633;42.716;23.312;2023-03-01T10:43:50;0.82;;;0.80;;
22935;SDS011;11633;42.716;23.312;2023-03-01T10:46:30;0.38;;;0.30;;
22935;SDS011;11633;42.716;23.312;2023-03-01T10:51:39;0.52;;;0.40;;
22935;SDS011;11633;42.716;23.312;2023-03-01T10:54:05;0.60;;;0.50;;
22935;SDS011;11633;42.716;23.312;2023-03-01T10:56:46;0.88;;;0.50;;
22935;SDS011;11633;42.716;23.312;2023-03-01T10:59:20;1.92;;;0.80;;
22935;SDS011;11633;42.716;23.312;2023-03-01T11:01:46;2.65;;;0.90;;
22935;SDS011;11633;42.716;23.312;2023-03-01T11:04:25;1.55;;;0.60;;
22935;SDS011;11633;42.716;23.312;2023-03-01T11:06:57;2.83;;;1.05;;
22935;SDS011;11633;42.716;23.312;2023-03-01T11:09:24;0.77;;;0.43;;
22935;SDS011;11633;42.716;23.312;2023-03-01T11:11:52;0.85;;;0.60;;
22935;SDS011;11633;42.716;23.312;2023-03-01T11:14:20;0.65;;;0.43;;
22935;SDS011;11633;42.716;23.312;2023-03-01T11:19:59;0.77;;;0.40;;
22935;SDS011;11633;42.716;23.312;2023-03-01T11:22:25;0.80;;;0.52;;
22935;SDS011;11633;42.716;23.312;2023-03-01T11:24:51;2.53;;;0.70;;
22935;SDS011;11633;42.716;23.312;2023-03-01T11:27:24;0.60;;;0.50;;
22935;SDS011;11633;42.716;23.312;2023-03-01T11:32:19;0.85;;;0.50;;
22935;SDS011;11633;42.716;23.312;2023-03-01T11:34:50;0.85;;;0.43;;
22935;SDS011;11633;42.716;23.312;2023-03-01T11:37:35;2.05;;;0.50;;
22935;SDS011;11633;42.716;23.312;2023-03-01T11:40:05;0.90;;;0.52;;
22935;SDS011;11633;42.716;23.312;2023-03-01T11:45:02;1.70;;;0.60;;
22935;SDS011;11633;42.716;23.312;2023-03-01T11:47:47;1.75;;;0.82;;
22935;SDS011;11633;42.716;23.312;2023-03-01T11:50:16;0.82;;;0.60;;
22935;SDS011;11633;42.716;23.312;2023-03-01T12:05:54;0.63;;;0.45;;
22935;SDS011;11633;42.716;23.312;2023-03-01T12:34:48;1.73;;;1.00;;
22935;SDS011;11633;42.716;23.312;2023-03-01T12:40:01;1.23;;;0.95;;
22935;SDS011;11633;42.716;23.312;2023-03-01T12:45:07;2.42;;;1.27;;
22935;SDS011;11633;42.716;23.312;2023-03-01T12:55:06;4.10;;;1.13;;
22935;SDS011;11633;42.716;23.312;2023-03-01T13:00:27;1.30;;;0.80;;
22935;SDS011;11633;42.716;23.312;2023-03-01T13:08:20;2.20;;;1.50;;
22935;SDS011;11633;42.716;23.312;2023-03-01T13:10:49;1.92;;;1.38;;
22935;SDS011;11633;42.716;23.312;2023-03-01T13:13:24;2.85;;;1.33;;
22935;SDS011;11633;42.716;23.312;2023-03-01T13:15:51;2.97;;;1.20;;
22935;SDS011;11633;42.716;23.312;2023-03-01T13:25:32;3.20;;;2.15;;
22935;SDS011;11633;42.716;23.312;2023-03-01T13:28:36;3.47;;;1.88;;
22935;SDS011;11633;42.716;23.312;2023-03-01T13:30:43;2.60;;;1.63;;
22935;SDS011;11633;42.716;23.312;2023-03-01T13:35:48;2.58;;;1.73;;
22935;SDS011;11633;42.716;23.312;2023-03-01T13:38:48;3.20;;;2.08;;
22935;SDS011;11633;42.716;23.312;2023-03-01T13:41:06;2.53;;;1.45;;
22935;SDS011;11633;42.716;23.312;2023-03-01T13:43:32;2.50;;;1.67;;
22935;SDS011;11633;42.716;23.312;2023-03-01T13:45:59;2.17;;;1.60;;
22935;SDS011;11633;42.716;23.312;2023-03-01T13:48:25;1.60;;;1.38;;
22935;SDS011;11633;42.716;23.312;2023-03-01T13:50:53;1.85;;;1.52;;
22935;SDS011;11633;42.716;23.312;2023-03-01T13:53:21;1.58;;;1.10;;
22935;SDS011;11633;42.716;23.312;2023-03-01T13:55:48;1.88;;;1.67;;
22935;SDS011;11633;42.716;23.312;2023-03-01T13:58:24;2.53;;;1.60;;
22935;SDS011;11633;42.716;23.312;2023-03-01T14:01:00;3.25;;;1.48;;
22935;SDS011;11633;42.716;23.312;2023-03-01T14:03:26;4.43;;;2.17;;
22935;SDS011;11633;42.716;23.312;2023-03-01T14:06:05;2.47;;;1.50;;
22935;SDS011;11633;42.716;23.312;2023-03-01T14:08:31;2.30;;;1.48;;
22935;SDS011;11633;42.716;23.312;2023-03-01T14:13:31;3.28;;;1.83;;
22935;SDS011;11633;42.716;23.312;2023-03-01T14:21:18;2.75;;;1.42;;
22935;SDS011;11633;42.716;23.312;2023-03-01T14:23:43;2.70;;;1.75;;
22935;SDS011;11633;42.716;23.312;2023-03-01T14:26:09;5.53;;;2.35;;
22935;SDS011;11633;42.716;23.312;2023-03-01T14:28:37;2.95;;;1.90;;
22935;SDS011;11633;42.716;23.312;2023-03-01T14:31:21;4.40;;;2.20;;
22935;SDS011;11633;42.716;23.312;2023-03-01T14:33:53;6.45;;;2.58;;
22935;SDS011;11633;42.716;23.312;2023-03-01T14:36:25;4.00;;;1.85;;
22935;SDS011;11633;42.716;23.312;2023-03-01T14:38:50;3.83;;;1.85;;
22935;SDS011;11633;42.716;23.312;2023-03-01T14:41:19;3.70;;;2.72;;
22935;SDS011;11633;42.716;23.312;2023-03-01T14:43:46;3.00;;;1.90;;
22935;SDS011;11633;42.716;23.312;2023-03-01T14:46:19;3.70;;;2.80;;
22935;SDS011;11633;42.716;23.312;2023-03-01T14:48:48;2.35;;;1.98;;
22935;SDS011;11633;42.716;23.312;2023-03-01T14:51:13;2.45;;;1.40;;
22935;SDS011;11633;42.716;23.312;2023-03-01T14:53:38;2.13;;;1.55;;
22935;SDS011;11633;42.716;23.312;2023-03-01T14:56:04;3.35;;;1.48;;
22935;SDS011;11633;42.716;23.312;2023-03-01T14:58:31;2.10;;;1.13;;
22935;SDS011;11633;42.716;23.312;2023-03-01T15:00:58;6.13;;;1.70;;
22935;SDS011;11633;42.716;23.312;2023-03-01T15:03:37;2.03;;;1.65;;
22935;SDS011;11633;42.716;23.312;2023-03-01T15:06:03;2.17;;;1.20;;
22935;SDS011;11633;42.716;23.312;2023-03-01T15:08:29;1.65;;;1.02;;
22935;SDS011;11633;42.716;23.312;2023-03-01T15:10:59;1.63;;;1.00;;
22935;SDS011;11633;42.716;23.312;2023-03-01T15:13:26;2.58;;;1.55;;
22935;SDS011;11633;42.716;23.312;2023-03-01T15:15:53;5.60;;;1.23;;
22935;SDS011;11633;42.716;23.312;2023-03-01T15:18:26;1.90;;;1.25;;
22935;SDS011;11633;42.716;23.312;2023-03-01T15:20:52;3.67;;;1.73;;
22935;SDS011;11633;42.716;23.312;2023-03-01T15:23:25;3.45;;;1.70;;
22935;SDS011;11633;42.716;23.312;2023-03-01T15:25:52;2.83;;;1.67;;
22935;SDS011;11633;42.716;23.312;2023-03-01T15:28:27;2.20;;;1.50;;
22935;SDS011;11633;42.716;23.312;2023-03-01T15:30:55;4.55;;;1.48;;
22935;SDS011;11633;42.716;23.312;2023-03-01T15:35:52;2.80;;;2.00;;
22935;SDS011;11633;42.716;23.312;2023-03-01T15:38:32;3.75;;;1.90;;
22935;SDS011;11633;42.716;23.312;2023-03-01T15:40:58;6.78;;;2.22;;
22935;SDS011;11633;42.716;23.312;2023-03-01T15:43:44;5.07;;;1.85;;
22935;SDS011;11633;42.716;23.312;2023-03-01T15:48:55;4.65;;;1.55;;
22935;SDS011;11633;42.716;23.312;2023-03-01T15:51:34;3.33;;;1.83;;
22935;SDS011;11633;42.716;23.312;2023-03-01T15:54:01;3.22;;;1.50;;
22935;SDS011;11633;42.716;23.312;2023-03-01T15:56:28;3.63;;;1.98;;
22935;SDS011;11633;42.716;23.312;2023-03-01T15:58:57;1.92;;;1.73;;
22935;SDS011;11633;42.716;23.312;2023-03-01T16:01:22;4.68;;;2.28;;
22935;SDS011;11633;42.716;23.312;2023-03-01T16:03:47;3.67;;;2.30;;
22935;SDS011;11633;42.716;23.312;2023-03-01T16:06:13;3.63;;;2.03;;
22935;SDS011;11633;42.716;23.312;2023-03-01T16:08:38;2.50;;;1.70;;
22935;SDS011;11633;42.716;23.312;2023-03-01T16:11:37;3.40;;;2.13;;
22935;SDS011;11633;42.716;23.312;2023-03-01T16:13:57;2.90;;;2.10;;
22935;SDS011;11633;42.716;23.312;2023-03-01T16:16:22;5.05;;;2.70;;
22935;SDS011;11633;42.716;23.312;2023-03-01T16:18:48;5.07;;;2.58;;
22935;SDS011;11633;42.716;23.312;2023-03-01T16:21:14;3.85;;;2.13;;
22935;SDS011;11633;42.716;23.312;2023-03-01T16:23:40;4.47;;;2.28;;